Time;durP1;ratioP1;P1;durP2;ratioP2;P2;SDS_P1;SDS_P2;PMS_P1;PMS_P2;Temp;Humidity;BMP_temperature;BMP_pressure;BME280_temperature;BME280_humidity;BME280_pressure;Samples;Min_cycle;Max_cycle;Signal;HPM_P1;HPM_P2
2022/10/09 00:00:24;;;;;;;20.60;11.87;;;;;;;;;;5039646;28;89928;-64
2022/10/09 00:02:53;;;;;;;24.03;12.10;;;;;;;;;;5040168;27;89809;-64
2022/10/09 00:05:22;;;;;;;25.80;12.50;;;;;;;;;;5040426;28;87175;-64
2022/10/09 00:07:50;;;;;;;23.67;12.17;;;;;;;;;;5040227;28;87126;-64
2022/10/09 00:10:19;;;;;;;22.57;13.30;;;;;;;;;;5039675;28;88622;-65
2022/10/09 00:12:47;;;;;;;23.60;12.80;;;;;;;;;;5040440;28;88955;-64
2022/10/09 00:15:15;;;;;;;21.37;11.87;;;;;;;;;;5040456;28;87078;-65
2022/10/09 00:17:45;;;;;;;22.70;13.13;;;;;;;;;;5039971;28;86332;-65
2022/10/09 00:20:13;;;;;;;20.70;13.23;;;;;;;;;;5040490;28;91748;-64
2022/10/09 00:22:43;;;;;;;27.57;12.90;;;;;;;;;;5039626;28;89242;-64
2022/10/09 00:25:11;;;;;;;19.30;12.27;;;;;;;;;;5039494;28;87994;-65
2022/10/09 00:27:39;;;;;;;26.43;13.70;;;;;;;;;;5040579;28;87134;-65
2022/10/09 00:30:08;;;;;;;24.37;12.87;;;;;;;;;;5039495;28;88707;-65
2022/10/09 00:32:36;;;;;;;22.60;13.03;;;;;;;;;;5032821;28;88637;-65
2022/10/09 00:35:07;;;;;;;27.37;12.00;;;;;;;;;;5020207;28;87147;-65
2022/10/09 00:37:35;;;;;;;21.83;12.43;;;;;;;;;;5019344;28;87079;-65
2022/10/09 00:40:04;;;;;;;21.30;12.13;;;;;;;;;;5019777;28;88690;-65
2022/10/09 00:42:32;;;;;;;20.03;11.03;;;;;;;;;;5019748;28;88079;-64
2022/10/09 00:45:00;;;;;;;20.57;12.10;;;;;;;;;;5020019;28;86984;-64
2022/10/09 00:47:30;;;;;;;21.13;11.27;;;;;;;;;;5020242;28;87667;-64
2022/10/09 00:50:09;;;;;;;19.17;11.27;;;;;;;;;;5019001;28;90549;-65
2022/10/09 00:52:37;;;;;;;22.43;12.07;;;;;;;;;;5018626;28;89560;-64
2022/10/09 00:55:06;;;;;;;21.20;10.30;;;;;;;;;;5019731;28;87175;-65
2022/10/09 00:57:34;;;;;;;19.47;11.40;;;;;;;;;;5023715;28;87105;-64
2022/10/09 01:00:04;;;;;;;22.03;11.63;;;;;;;;;;5022692;28;89172;-64
2022/10/09 01:02:33;;;;;;;18.17;8.70;;;;;;;;;;5022721;28;89216;-64
2022/10/09 01:05:01;;;;;;;20.67;12.17;;;;;;;;;;5024218;28;86930;-64
2022/10/09 01:07:32;;;;;;;16.00;9.80;;;;;;;;;;5023331;28;86457;-64
2022/10/09 01:10:02;;;;;;;21.10;11.60;;;;;;;;;;5023580;28;88804;-64
2022/10/09 01:12:34;;;;;;;13.80;9.40;;;;;;;;;;5022923;28;89251;-64
2022/10/09 01:15:04;;;;;;;18.30;8.63;;;;;;;;;;5003353;28;87872;-64
2022/10/09 01:17:34;;;;;;;14.87;9.23;;;;;;;;;;5017646;28;87090;-64
2022/10/09 01:20:12;;;;;;;13.17;8.70;;;;;;;;;;5023141;28;88890;-64
2022/10/09 01:22:44;;;;;;;17.90;9.33;;;;;;;;;;5023299;28;90837;-64
2022/10/09 01:25:15;;;;;;;15.90;9.20;;;;;;;;;;5023361;28;87100;-64
2022/10/09 01:27:45;;;;;;;14.47;8.30;;;;;;;;;;5023139;28;86967;-63
2022/10/09 01:30:13;;;;;;;16.53;9.10;;;;;;;;;;5022552;28;88822;-64
2022/10/09 01:32:41;;;;;;;13.47;8.10;;;;;;;;;;5022135;28;88189;-64
2022/10/09 01:35:10;;;;;;;13.20;8.10;;;;;;;;;;5023094;28;87013;-64
2022/10/09 01:37:38;;;;;;;14.50;8.40;;;;;;;;;;5023710;28;87041;-64
2022/10/09 01:40:07;;;;;;;12.20;8.27;;;;;;;;;;5022146;28;90149;-64
2022/10/09 01:42:35;;;;;;;15.63;7.27;;;;;;;;;;5021190;28;89618;-64
2022/10/09 01:45:05;;;;;;;9.83;6.37;;;;;;;;;;5017768;28;87156;-64
2022/10/09 01:47:33;;;;;;;15.47;7.67;;;;;;;;;;5016513;28;87337;-64
2022/10/09 01:50:02;;;;;;;13.27;5.87;;;;;;;;;;5017969;28;88477;-66
2022/10/09 01:52:33;;;;;;;9.77;6.30;;;;;;;;;;5016392;28;87903;-64
2022/10/09 01:55:09;;;;;;;11.60;6.63;;;;;;;;;;5017001;28;87205;-66
2022/10/09 01:57:38;;;;;;;12.83;6.53;;;;;;;;;;5017159;28;86529;-66
2022/10/09 02:00:09;;;;;;;11.83;5.90;;;;;;;;;;5024508;28;89231;-65
2022/10/09 02:02:37;;;;;;;10.10;6.17;;;;;;;;;;5023399;28;89479;-66
2022/10/09 02:05:06;;;;;;;9.90;5.03;;;;;;;;;;5023198;28;88095;-66
2022/10/09 02:07:34;;;;;;;9.97;5.40;;;;;;;;;;5022895;28;87017;-66
2022/10/09 02:10:02;;;;;;;10.40;5.17;;;;;;;;;;5022109;28;89515;-66
2022/10/09 02:12:30;;;;;;;10.63;5.27;;;;;;;;;;5022405;28;88930;-66
2022/10/09 02:14:59;;;;;;;10.50;5.47;;;;;;;;;;5022329;28;87089;-66
2022/10/09 02:17:30;;;;;;;8.63;4.93;;;;;;;;;;5022489;28;87012;-66
2022/10/09 02:19:59;;;;;;;9.43;5.83;;;;;;;;;;5022903;28;87813;-66
2022/10/09 02:22:28;;;;;;;6.70;4.40;;;;;;;;;;5022546;28;88512;-66
2022/10/09 02:24:57;;;;;;;7.53;4.83;;;;;;;;;;5023066;28;87088;-66
2022/10/09 02:27:25;;;;;;;6.37;4.07;;;;;;;;;;5022734;28;87036;-66
2022/10/09 02:29:54;;;;;;;6.10;4.37;;;;;;;;;;5021331;28;89947;-66
2022/10/09 02:32:22;;;;;;;11.47;5.07;;;;;;;;;;5021377;28;89415;-66
2022/10/09 02:34:52;;;;;;;4.87;4.00;;;;;;;;;;5022528;28;86927;-66
2022/10/09 02:37:20;;;;;;;5.53;3.73;;;;;;;;;;5022249;28;87320;-66
2022/10/09 02:39:49;;;;;;;9.53;4.00;;;;;;;;;;5019530;28;88686;-66
2022/10/09 02:42:17;;;;;;;6.40;3.37;;;;;;;;;;5021295;28;88967;-66
2022/10/09 02:44:45;;;;;;;5.07;2.70;;;;;;;;;;5021680;28;87166;-66
2022/10/09 02:47:16;;;;;;;7.57;4.17;;;;;;;;;;5022487;28;86340;-66
2022/10/09 02:49:44;;;;;;;4.73;2.87;;;;;;;;;;5021717;28;88236;-66
2022/10/09 02:52:14;;;;;;;4.07;2.90;;;;;;;;;;5021392;28;88659;-65
2022/10/09 02:54:42;;;;;;;6.03;3.17;;;;;;;;;;5022359;28;88570;-65
2022/10/09 02:57:10;;;;;;;7.87;3.07;;;;;;;;;;5021637;28;88238;-66
2022/10/09 02:59:38;;;;;;;4.57;2.83;;;;;;;;;;5020977;28;89193;-66
2022/10/09 03:02:07;;;;;;;5.17;2.87;;;;;;;;;;5020402;28;88438;-66
2022/10/09 03:04:35;;;;;;;3.07;2.60;;;;;;;;;;5022402;28;87106;-66
2022/10/09 03:07:03;;;;;;;7.33;3.20;;;;;;;;;;5021037;28;86995;-65
2022/10/09 03:09:33;;;;;;;4.27;2.50;;;;;;;;;;5004713;28;88925;-66
2022/10/09 03:12:01;;;;;;;6.37;3.27;;;;;;;;;;5021719;28;88879;-66
2022/10/09 03:14:29;;;;;;;6.37;2.90;;;;;;;;;;5021944;28;87090;-66
2022/10/09 03:16:58;;;;;;;7.20;3.63;;;;;;;;;;5017524;28;87059;-66
2022/10/09 03:19:26;;;;;;;3.23;2.40;;;;;;;;;;5019985;28;90052;-65
2022/10/09 03:21:54;;;;;;;4.00;2.33;;;;;;;;;;5020360;28;90022;-65
2022/10/09 03:24:22;;;;;;;4.80;2.57;;;;;;;;;;5021297;28;86976;-66
2022/10/09 03:26:52;;;;;;;4.67;2.37;;;;;;;;;;5020757;28;87272;-65
2022/10/09 03:29:20;;;;;;;6.67;2.87;;;;;;;;;;5020819;28;89030;-65
2022/10/09 03:31:48;;;;;;;3.07;2.20;;;;;;;;;;5020501;28;88731;-65
2022/10/09 03:34:20;;;;;;;9.00;2.83;;;;;;;;;;5020958;28;87092;-65
2022/10/09 03:36:49;;;;;;;3.83;2.10;;;;;;;;;;5021183;28;86304;-66
2022/10/09 03:39:17;;;;;;;5.17;1.87;;;;;;;;;;5017298;28;88673;-65
2022/10/09 03:41:45;;;;;;;2.13;1.60;;;;;;;;;;5014485;28;88723;-65
2022/10/09 03:44:15;;;;;;;2.50;1.83;;;;;;;;;;5014237;28;89683;-65
2022/10/09 03:46:43;;;;;;;3.40;2.20;;;;;;;;;;5014714;28;88649;-65
2022/10/09 03:49:11;;;;;;;3.60;1.70;;;;;;;;;;5012870;28;89575;-65
2022/10/09 03:51:40;;;;;;;2.50;1.67;;;;;;;;;;5014392;28;88713;-66
2022/10/09 03:54:08;;;;;;;2.00;1.77;;;;;;;;;;5013693;28;88379;-65
2022/10/09 03:56:36;;;;;;;3.27;1.90;;;;;;;;;;5018883;28;87117;-65
2022/10/09 03:59:06;;;;;;;2.90;2.00;;;;;;;;;;5020594;28;89072;-65
2022/10/09 04:01:35;;;;;;;2.03;1.60;;;;;;;;;;5020827;28;91736;-65
2022/10/09 04:04:04;;;;;;;2.43;1.23;;;;;;;;;;5021223;28;87309;-65
2022/10/09 04:06:32;;;;;;;1.77;1.40;;;;;;;;;;5019528;28;87166;-65
2022/10/09 04:09:01;;;;;;;1.47;1.33;;;;;;;;;;5020531;28;90273;-65
2022/10/09 04:11:29;;;;;;;3.03;1.70;;;;;;;;;;5022686;28;89443;-65
2022/10/09 04:13:57;;;;;;;2.43;1.30;;;;;;;;;;5020959;28;87164;-65
2022/10/09 04:16:25;;;;;;;1.77;1.27;;;;;;;;;;5020151;28;87104;-65
2022/10/09 04:18:55;;;;;;;1.50;1.40;;;;;;;;;;5020378;28;89207;-65
2022/10/09 04:21:23;;;;;;;2.10;1.10;;;;;;;;;;5020764;28;88665;-65
2022/10/09 04:23:52;;;;;;;1.30;1.23;;;;;;;;;;5020629;28;87075;-65
2022/10/09 04:26:20;;;;;;;0.80;0.80;;;;;;;;;;5020346;28;86394;-65
2022/10/09 04:28:49;;;;;;;3.63;1.43;;;;;;;;;;5020442;28;87644;-65
2022/10/09 04:31:17;;;;;;;2.63;1.47;;;;;;;;;;5018146;28;91980;-65
2022/10/09 04:33:45;;;;;;;1.23;1.13;;;;;;;;;;5021782;28;88002;-65
2022/10/09 04:36:16;;;;;;;1.77;1.40;;;;;;;;;;5019905;28;87592;-65
2022/10/09 04:38:44;;;;;;;2.40;1.50;;;;;;;;;;5020026;28;89435;-65
2022/10/09 04:41:12;;;;;;;4.60;1.27;;;;;;;;;;5020509;28;88423;-65
2022/10/09 04:43:41;;;;;;;2.13;1.67;;;;;;;;;;5017344;28;87009;-65
2022/10/09 04:46:10;;;;;;;1.20;1.10;;;;;;;;;;5005757;28;88508;-65
2022/10/09 04:48:39;;;;;;;1.20;1.00;;;;;;;;;;5020329;28;89023;-66
2022/10/09 04:51:07;;;;;;;1.93;1.23;;;;;;;;;;5020950;28;88487;-65
2022/10/09 04:53:37;;;;;;;1.30;1.20;;;;;;;;;;5019996;28;87119;-65
2022/10/09 04:56:05;;;;;;;1.20;1.10;;;;;;;;;;5019560;28;87117;-65
2022/10/09 04:58:35;;;;;;;1.77;1.10;;;;;;;;;;5017769;28;90170;-65
2022/10/09 05:01:06;;;;;;;1.07;0.90;;;;;;;;;;5002338;28;89745;-65
2022/10/09 05:03:34;;;;;;;3.93;1.10;;;;;;;;;;5020722;28;87050;-66
2022/10/09 05:06:02;;;;;;;1.53;0.83;;;;;;;;;;5019469;28;86928;-65
2022/10/09 05:08:30;;;;;;;0.97;0.80;;;;;;;;;;5020467;28;89366;-65
2022/10/09 05:11:03;;;;;;;1.73;0.90;;;;;;;;;;5018795;28;88550;-65
2022/10/09 05:13:31;;;;;;;2.27;1.00;;;;;;;;;;5019845;28;87143;-65
2022/10/09 05:16:01;;;;;;;0.83;0.80;;;;;;;;;;5020103;28;86561;-65
2022/10/09 05:18:29;;;;;;;1.57;1.13;;;;;;;;;;5000105;28;89255;-65
2022/10/09 05:20:58;;;;;;;0.77;0.73;;;;;;;;;;5002203;28;88615;-65
2022/10/09 05:23:26;;;;;;;4.53;0.97;;;;;;;;;;5019108;28;88175;-65
2022/10/09 05:25:55;;;;;;;2.00;0.80;;;;;;;;;;5019887;28;86996;-65
2022/10/09 05:28:24;;;;;;;1.70;1.13;;;;;;;;;;5019541;28;88885;-65
2022/10/09 05:30:53;;;;;;;0.93;0.73;;;;;;;;;;5019311;28;88809;-65
2022/10/09 05:33:21;;;;;;;1.20;1.10;;;;;;;;;;5018182;28;87041;-65
2022/10/09 05:35:52;;;;;;;1.87;1.20;;;;;;;;;;5019435;28;87087;-65
2022/10/09 05:38:20;;;;;;;1.50;1.10;;;;;;;;;;5016070;28;89177;-66
2022/10/09 05:40:52;;;;;;;1.17;1.07;;;;;;;;;;5019584;28;88916;-65
2022/10/09 05:43:20;;;;;;;0.73;0.70;;;;;;;;;;5022153;28;86991;-65
2022/10/09 05:45:50;;;;;;;1.67;1.10;;;;;;;;;;5022976;28;86976;-65
2022/10/09 05:48:18;;;;;;;0.77;0.77;;;;;;;;;;5021845;28;90293;-65
2022/10/09 05:50:47;;;;;;;0.77;0.70;;;;;;;;;;5023081;28;88784;-65
2022/10/09 05:53:15;;;;;;;1.00;0.90;;;;;;;;;;5022828;28;87316;-65
2022/10/09 05:55:43;;;;;;;1.77;1.13;;;;;;;;;;5022933;28;87112;-65
2022/10/09 05:58:12;;;;;;;0.63;0.63;;;;;;;;;;5022754;28;89280;-65
2022/10/09 06:00:40;;;;;;;0.57;0.37;;;;;;;;;;5022465;28;88714;-65
2022/10/09 06:03:09;;;;;;;1.30;0.80;;;;;;;;;;5022623;28;87277;-65
2022/10/09 06:05:38;;;;;;;0.97;0.70;;;;;;;;;;5023357;28;86335;-65
2022/10/09 06:08:06;;;;;;;1.37;0.80;;;;;;;;;;5022549;28;89456;-65
2022/10/09 06:10:34;;;;;;;0.60;0.60;;;;;;;;;;5023044;28;88086;-65
2022/10/09 06:13:03;;;;;;;0.73;0.73;;;;;;;;;;5021897;28;87928;-65
2022/10/09 06:15:31;;;;;;;3.27;0.90;;;;;;;;;;5023960;28;87234;-65
2022/10/09 06:17:59;;;;;;;2.87;0.77;;;;;;;;;;5023979;28;89391;-67
2022/10/09 06:20:29;;;;;;;1.33;0.87;;;;;;;;;;5023629;28;87724;-65
2022/10/09 06:22:57;;;;;;;0.93;0.83;;;;;;;;;;5019918;28;87067;-65
2022/10/09 06:25:25;;;;;;;0.73;0.73;;;;;;;;;;5024211;28;87162;-66
2022/10/09 06:27:54;;;;;;;0.93;0.60;;;;;;;;;;5024155;28;88975;-66
2022/10/09 06:30:22;;;;;;;3.40;1.17;;;;;;;;;;5039149;28;89051;-66
2022/10/09 06:32:50;;;;;;;3.67;1.63;;;;;;;;;;5042218;28;87061;-65
2022/10/09 06:35:19;;;;;;;2.63;1.33;;;;;;;;;;5039513;28;86773;-66
2022/10/09 06:37:49;;;;;;;2.17;1.70;;;;;;;;;;5040805;28;91948;-65
2022/10/09 06:40:17;;;;;;;3.30;1.77;;;;;;;;;;5040963;28;88450;-66
2022/10/09 06:42:45;;;;;;;3.20;1.73;;;;;;;;;;5039925;28;86988;-66
2022/10/09 06:45:14;;;;;;;3.80;1.77;;;;;;;;;;5031915;28;87159;-64
2022/10/09 06:47:42;;;;;;;3.40;2.43;;;;;;;;;;5022396;28;88521;-66
2022/10/09 06:50:11;;;;;;;5.83;3.00;;;;;;;;;;5022378;28;88878;-64
2022/10/09 06:52:39;;;;;;;4.30;2.67;;;;;;;;;;5021420;28;87080;-63
2022/10/09 06:55:09;;;;;;;7.20;3.30;;;;;;;;;;5022430;28;86382;-64
2022/10/09 06:57:37;;;;;;;5.67;3.53;;;;;;;;;;5021135;28;92384;-64
2022/10/09 07:00:06;;;;;;;3.83;2.70;;;;;;;;;;5020991;28;88010;-64
2022/10/09 07:02:36;;;;;;;3.73;2.87;;;;;;;;;;5021586;28;88073;-65
2022/10/09 07:05:10;;;;;;;6.30;3.60;;;;;;;;;;5020250;28;87064;-67
2022/10/09 07:07:40;;;;;;;7.63;4.53;;;;;;;;;;5020650;28;91822;-66
2022/10/09 07:10:10;;;;;;;7.57;4.10;;;;;;;;;;5020856;28;88836;-64
2022/10/09 07:12:38;;;;;;;7.77;5.00;;;;;;;;;;5020375;28;87138;-65
2022/10/09 07:15:07;;;;;;;5.10;4.53;;;;;;;;;;5020171;28;87112;-65
2022/10/09 07:17:35;;;;;;;5.67;4.30;;;;;;;;;;5019737;28;92351;-65
2022/10/09 07:20:03;;;;;;;13.70;5.10;;;;;;;;;;5021574;28;88539;-65
2022/10/09 07:22:32;;;;;;;8.30;5.03;;;;;;;;;;5021370;28;87009;-66
2022/10/09 07:25:01;;;;;;;10.43;5.83;;;;;;;;;;5020409;28;88608;-65
2022/10/09 07:27:30;;;;;;;8.77;5.93;;;;;;;;;;5019263;28;92210;-65
2022/10/09 07:29:59;;;;;;;8.93;6.07;;;;;;;;;;5020620;28;92208;-66
2022/10/09 07:32:27;;;;;;;15.77;6.60;;;;;;;;;;5020295;28;87211;-67
2022/10/09 07:34:56;;;;;;;10.00;5.73;;;;;;;;;;5019046;28;87096;-67
2022/10/09 07:37:24;;;;;;;8.63;5.47;;;;;;;;;;5017832;28;88906;-65
2022/10/09 07:39:53;;;;;;;4.63;3.87;;;;;;;;;;5019444;28;88680;-63
2022/10/09 07:42:21;;;;;;;8.37;4.63;;;;;;;;;;5023463;28;87042;-65
2022/10/09 07:44:50;;;;;;;6.87;4.27;;;;;;;;;;5029880;28;86900;-67
2022/10/09 07:47:19;;;;;;;7.50;4.77;;;;;;;;;;5027774;28;88955;-67
2022/10/09 07:49:47;;;;;;;5.93;4.37;;;;;;;;;;5029866;28;88022;-65
2022/10/09 07:52:15;;;;;;;8.93;3.23;;;;;;;;;;5027527;28;88226;-66
2022/10/09 07:54:44;;;;;;;6.30;4.23;;;;;;;;;;5030785;28;87574;-66
2022/10/09 07:57:13;;;;;;;10.73;4.20;;;;;;;;;;5023339;28;88356;-67
2022/10/09 07:59:42;;;;;;;4.97;3.40;;;;;;;;;;5028824;28;89020;-68
2022/10/09 08:02:11;;;;;;;5.97;3.30;;;;;;;;;;5026350;28;87226;-65
2022/10/09 08:04:40;;;;;;;6.43;2.93;;;;;;;;;;5026946;28;87484;-68
2022/10/09 08:07:08;;;;;;;3.20;2.90;;;;;;;;;;5030480;28;88947;-68
2022/10/09 08:09:36;;;;;;;3.73;2.87;;;;;;;;;;5028024;28;89005;-68
2022/10/09 08:12:04;;;;;;;8.20;2.73;;;;;;;;;;5027705;28;86980;-67
2022/10/09 08:14:33;;;;;;;4.10;2.23;;;;;;;;;;5028540;28;87156;-67
2022/10/09 08:17:01;;;;;;;4.63;3.20;;;;;;;;;;5027616;28;92713;-68
2022/10/09 08:19:31;;;;;;;3.57;2.27;;;;;;;;;;5028804;28;89846;-68
2022/10/09 08:21:59;;;;;;;6.50;2.70;;;;;;;;;;5028735;28;87063;-68
2022/10/09 08:24:30;;;;;;;6.07;2.30;;;;;;;;;;5029260;28;86958;-68
2022/10/09 08:26:59;;;;;;;5.07;3.27;;;;;;;;;;5028840;28;89163;-65
2022/10/09 08:29:27;;;;;;;5.43;2.37;;;;;;;;;;5026569;28;88914;-67
2022/10/09 08:31:55;;;;;;;4.40;3.00;;;;;;;;;;5026504;28;87122;-67
2022/10/09 08:34:23;;;;;;;3.57;2.37;;;;;;;;;;5047663;27;86415;-67
2022/10/09 08:36:55;;;;;;;3.10;2.20;;;;;;;;;;5046156;27;88480;-67
2022/10/09 08:39:24;;;;;;;3.67;2.10;;;;;;;;;;5054204;27;88986;-68
2022/10/09 08:41:52;;;;;;;3.60;1.93;;;;;;;;;;5044955;27;88014;-67
2022/10/09 08:44:21;;;;;;;5.50;2.20;;;;;;;;;;5040142;27;86911;-69
2022/10/09 08:46:51;;;;;;;3.73;1.90;;;;;;;;;;5040044;28;90049;-68
2022/10/09 08:49:21;;;;;;;4.20;1.77;;;;;;;;;;5039538;27;90014;-68
2022/10/09 08:51:49;;;;;;;4.37;2.00;;;;;;;;;;5040866;28;87081;-69
2022/10/09 08:54:22;;;;;;;2.17;1.73;;;;;;;;;;5041037;28;86991;-67
2022/10/09 08:56:50;;;;;;;2.93;1.80;;;;;;;;;;5040907;28;89129;-67
2022/10/09 08:59:19;;;;;;;6.00;1.77;;;;;;;;;;5040060;28;88152;-67
2022/10/09 09:01:49;;;;;;;6.90;1.93;;;;;;;;;;5040206;28;86965;-67
2022/10/09 09:04:35;;;;;;;2.77;1.30;;;;;;;;;;5039594;28;87439;-68
2022/10/09 09:07:06;;;;;;;4.43;1.83;;;;;;;;;;5044568;27;89127;-67
2022/10/09 09:09:39;;;;;;;3.37;2.07;;;;;;;;;;5027099;27;93390;-67
2022/10/09 09:12:09;;;;;;;2.17;1.80;;;;;;;;;;5020387;28;87012;-67
2022/10/09 09:14:41;;;;;;;1.73;1.23;;;;;;;;;;5020095;28;87373;-67
2022/10/09 09:17:11;;;;;;;2.20;1.00;;;;;;;;;;5041313;27;88874;-67
2022/10/09 09:19:46;;;;;;;1.90;1.40;;;;;;;;;;5043526;28;88785;-67
2022/10/09 09:22:14;;;;;;;2.50;1.30;;;;;;;;;;5043949;28;87140;-67
2022/10/09 09:24:45;;;;;;;1.37;1.00;;;;;;;;;;5043752;28;86857;-67
2022/10/09 09:27:13;;;;;;;1.77;1.50;;;;;;;;;;5037224;27;89061;-67
2022/10/09 09:29:44;;;;;;;2.33;1.67;;;;;;;;;;5048435;27;89171;-67
2022/10/09 09:32:15;;;;;;;4.07;2.07;;;;;;;;;;5046201;27;88671;-67
2022/10/09 09:34:43;;;;;;;3.73;2.03;;;;;;;;;;5053661;27;86915;-67
2022/10/09 09:37:11;;;;;;;3.30;1.97;;;;;;;;;;5053979;27;88985;-67
2022/10/09 09:39:40;;;;;;;2.17;1.27;;;;;;;;;;5052726;27;88865;-67
2022/10/09 09:42:29;;;;;;;2.60;1.70;;;;;;;;;;5053422;27;87256;-67
2022/10/09 09:44:59;;;;;;;4.23;1.60;;;;;;;;;;5051126;27;87063;-67
2022/10/09 09:47:28;;;;;;;5.17;1.90;;;;;;;;;;5052701;27;87495;-67
2022/10/09 09:49:58;;;;;;;2.90;1.93;;;;;;;;;;5049168;27;88594;-67
2022/10/09 09:52:27;;;;;;;4.83;1.87;;;;;;;;;;5043459;28;86922;-66
2022/10/09 09:54:56;;;;;;;2.67;1.97;;;;;;;;;;5043498;28;86986;-67
2022/10/09 09:57:33;;;;;;;1.90;1.43;;;;;;;;;;5042268;28;89041;-67
2022/10/09 10:00:18;;;;;;;4.60;1.87;;;;;;;;;;5043029;28;89643;-67
2022/10/09 10:02:49;;;;;;;5.07;2.00;;;;;;;;;;5043256;27;87023;-67
2022/10/09 10:05:19;;;;;;;6.27;2.10;;;;;;;;;;5043834;28;88329;-66
2022/10/09 10:07:48;;;;;;;3.97;1.93;;;;;;;;;;5042611;28;89126;-66
2022/10/09 10:10:18;;;;;;;2.20;1.60;;;;;;;;;;5043103;28;89010;-66
2022/10/09 10:12:55;;;;;;;5.30;1.70;;;;;;;;;;5042596;27;87179;-66
2022/10/09 10:15:26;;;;;;;1.27;1.17;;;;;;;;;;5043586;28;86890;-66
2022/10/09 10:17:56;;;;;;;2.53;1.67;;;;;;;;;;5042808;28;88987;-66
2022/10/09 10:20:24;;;;;;;4.27;2.30;;;;;;;;;;5043271;28;87112;-66
2022/10/09 10:22:53;;;;;;;4.60;1.80;;;;;;;;;;5044772;27;88043;-66
2022/10/09 10:25:21;;;;;;;6.27;4.20;;;;;;;;;;5059270;27;86946;-66
2022/10/09 10:27:50;;;;;;;6.47;3.70;;;;;;;;;;5042340;27;89463;-68
2022/10/09 10:30:20;;;;;;;28.43;17.33;;;;;;;;;;5041501;28;89018;-68
2022/10/09 10:32:51;;;;;;;40.90;26.63;;;;;;;;;;5036613;28;87171;-67
2022/10/09 10:35:21;;;;;;;51.13;28.67;;;;;;;;;;5022541;28;87213;-68
2022/10/09 10:37:51;;;;;;;33.90;21.73;;;;;;;;;;5022811;28;88918;-68
2022/10/09 10:40:21;;;;;;;32.13;19.57;;;;;;;;;;5022243;28;88836;-68
2022/10/09 10:42:52;;;;;;;32.83;18.67;;;;;;;;;;5022146;28;87033;-66
2022/10/09 10:45:29;;;;;;;26.70;15.03;;;;;;;;;;5021727;28;87092;-67
2022/10/09 10:47:57;;;;;;;23.43;13.00;;;;;;;;;;5021231;28;90150;-67
2022/10/09 10:50:27;;;;;;;20.87;13.27;;;;;;;;;;5021185;28;88667;-67
2022/10/09 10:52:59;;;;;;;18.47;10.53;;;;;;;;;;5021733;28;86943;-68
2022/10/09 10:55:33;;;;;;;15.27;9.50;;;;;;;;;;5019528;28;87003;-67
2022/10/09 10:58:04;;;;;;;18.07;10.10;;;;;;;;;;5021618;28;89087;-68
2022/10/09 11:00:34;;;;;;;18.87;7.83;;;;;;;;;;5021575;28;88287;-68
2022/10/09 11:03:08;;;;;;;14.73;8.93;;;;;;;;;;5021931;28;87010;-67
2022/10/09 11:05:38;;;;;;;18.57;9.60;;;;;;;;;;5022429;28;86392;-68
2022/10/09 11:08:13;;;;;;;11.70;7.10;;;;;;;;;;5026564;28;89275;-68
2022/10/09 11:10:51;;;;;;;10.87;6.73;;;;;;;;;;5031284;28;87431;-67
2022/10/09 11:13:20;;;;;;;10.53;5.83;;;;;;;;;;5023358;28;87869;-68
2022/10/09 11:15:52;;;;;;;10.87;5.53;;;;;;;;;;5037228;28;86964;-67
2022/10/09 11:18:25;;;;;;;12.43;6.50;;;;;;;;;;5032414;28;89120;-67
2022/10/09 11:20:56;;;;;;;9.47;5.60;;;;;;;;;;5028091;28;94005;-67
2022/10/09 11:23:27;;;;;;;7.83;4.27;;;;;;;;;;5028639;28;87047;-67
2022/10/09 11:25:57;;;;;;;6.60;4.00;;;;;;;;;;5030124;28;86991;-68
2022/10/09 11:28:26;;;;;;;8.13;3.77;;;;;;;;;;5031390;28;88971;-70
2022/10/09 11:30:58;;;;;;;4.53;3.30;;;;;;;;;;5030077;28;88938;-66
2022/10/09 11:33:28;;;;;;;5.63;2.97;;;;;;;;;;5022224;27;88845;-67
2022/10/09 11:35:57;;;;;;;4.67;2.60;;;;;;;;;;5027270;28;87288;-67
2022/10/09 11:38:28;;;;;;;5.40;3.13;;;;;;;;;;5030460;28;89876;-67
2022/10/09 11:40:57;;;;;;;4.43;2.80;;;;;;;;;;5030443;28;88107;-69
2022/10/09 11:43:40;;;;;;;4.07;2.23;;;;;;;;;;5031701;28;87079;-69
2022/10/09 11:46:10;;;;;;;2.80;1.27;;;;;;;;;;5022736;28;87133;-70
2022/10/09 11:48:42;;;;;;;1.53;1.03;;;;;;;;;;5027956;28;89158;-69
2022/10/09 11:51:11;;;;;;;6.03;1.67;;;;;;;;;;5026526;28;91896;-70
2022/10/09 11:53:40;;;;;;;2.17;1.57;;;;;;;;;;5029809;28;87046;-70
2022/10/09 11:56:08;;;;;;;3.80;1.30;;;;;;;;;;5020329;28;86254;-70
2022/10/09 11:58:37;;;;;;;2.90;1.40;;;;;;;;;;5020849;28;89149;-70
2022/10/09 12:01:14;;;;;;;1.57;1.33;;;;;;;;;;5020560;28;88918;-70
2022/10/09 12:03:42;;;;;;;1.10;1.00;;;;;;;;;;5020305;28;89647;-70
2022/10/09 12:06:11;;;;;;;1.87;1.30;;;;;;;;;;5020991;28;87103;-70
2022/10/09 12:08:40;;;;;;;2.40;1.10;;;;;;;;;;5020806;28;88774;-68
2022/10/09 12:11:10;;;;;;;2.60;1.63;;;;;;;;;;5020922;28;88733;-66
2022/10/09 12:13:43;;;;;;;4.77;2.67;;;;;;;;;;5020982;28;87567;-65
2022/10/09 12:16:28;;;;;;;73.30;26.33;;;;;;;;;;5020620;28;86996;-67
2022/10/09 12:18:58;;;;;;;216.03;75.60;;;;;;;;;;5019882;28;89299;-68
2022/10/09 12:21:29;;;;;;;255.77;92.60;;;;;;;;;;5020006;28;89017;-70
2022/10/09 12:23:57;;;;;;;258.93;86.27;;;;;;;;;;5027471;28;86964;-65
2022/10/09 12:26:26;;;;;;;281.33;102.53;;;;;;;;;;5026405;28;87223;-67
2022/10/09 12:28:55;;;;;;;261.00;89.93;;;;;;;;;;5028604;28;90344;-67
2022/10/09 12:31:24;;;;;;;230.17;86.63;;;;;;;;;;5029106;28;89948;-67
2022/10/09 12:33:53;;;;;;;260.13;90.43;;;;;;;;;;5040088;27;87091;-64
2022/10/09 12:36:26;;;;;;;191.80;71.60;;;;;;;;;;5048342;27;87057;-65
2022/10/09 12:38:57;;;;;;;159.83;63.70;;;;;;;;;;5045756;27;89044;-67
2022/10/09 12:41:26;;;;;;;128.20;52.63;;;;;;;;;;5047490;27;89134;-67
2022/10/09 12:43:55;;;;;;;121.83;44.50;;;;;;;;;;5041443;27;87020;-67
2022/10/09 12:46:27;;;;;;;105.80;40.13;;;;;;;;;;5038614;28;86427;-65
2022/10/09 12:48:55;;;;;;;84.23;36.57;;;;;;;;;;5038174;28;89037;-65
2022/10/09 12:51:25;;;;;;;53.00;23.80;;;;;;;;;;5039685;28;88537;-65
2022/10/09 12:53:54;;;;;;;38.90;17.37;;;;;;;;;;5044773;27;89204;-67
2022/10/09 12:56:23;;;;;;;35.20;17.20;;;;;;;;;;5054369;27;87073;-70
2022/10/09 12:58:51;;;;;;;35.27;12.57;;;;;;;;;;5048125;27;87231;-63
2022/10/09 13:01:22;;;;;;;17.40;8.03;;;;;;;;;;5063049;27;88906;-64
2022/10/09 13:03:54;;;;;;;6.60;4.47;;;;;;;;;;5054096;27;87080;-65
2022/10/09 13:06:23;;;;;;;36.73;15.40;;;;;;;;;;5045243;27;87098;-65
2022/10/09 13:08:52;;;;;;;40.40;15.17;;;;;;;;;;5037250;27;89903;-64
2022/10/09 13:11:24;;;;;;;28.30;13.13;;;;;;;;;;5051550;27;87699;-68
2022/10/09 13:13:53;;;;;;;9.60;5.60;;;;;;;;;;5043442;28;87684;-68
2022/10/09 13:16:21;;;;;;;15.87;3.93;;;;;;;;;;5049778;27;87146;-68
2022/10/09 13:18:56;;;;;;;5.43;2.53;;;;;;;;;;5051983;27;90048;-65
2022/10/09 13:21:26;;;;;;;2.17;1.63;;;;;;;;;;5044213;27;88676;-65
2022/10/09 13:24:07;;;;;;;5.60;1.67;;;;;;;;;;5042399;28;88179;-64
2022/10/09 13:26:36;;;;;;;5.37;2.40;;;;;;;;;;5043718;28;87039;-63
2022/10/09 13:29:05;;;;;;;5.43;1.80;;;;;;;;;;5048113;27;89476;-65
2022/10/09 13:31:35;;;;;;;2.80;2.40;;;;;;;;;;5052101;27;88923;-67
2022/10/09 13:34:09;;;;;;;4.37;1.87;;;;;;;;;;5051999;27;87027;-69
2022/10/09 13:36:37;;;;;;;2.83;1.77;;;;;;;;;;5052600;27;87170;-65
2022/10/09 13:39:06;;;;;;;7.67;2.27;;;;;;;;;;5052149;27;89146;-65
2022/10/09 13:41:34;;;;;;;7.20;3.00;;;;;;;;;;5048135;27;88652;-64
2022/10/09 13:44:04;;;;;;;2.57;1.90;;;;;;;;;;5049366;27;87918;-65
2022/10/09 13:46:32;;;;;;;3.43;2.33;;;;;;;;;;5047579;27;87006;-67
2022/10/09 13:49:00;;;;;;;2.70;2.50;;;;;;;;;;5036917;27;92024;-65
2022/10/09 13:51:30;;;;;;;1.57;1.47;;;;;;;;;;5022822;28;88483;-65
2022/10/09 13:54:00;;;;;;;4.73;1.63;;;;;;;;;;5040450;28;86948;-65
2022/10/09 13:56:28;;;;;;;3.23;1.50;;;;;;;;;;5043477;28;86964;-67
2022/10/09 13:58:56;;;;;;;1.93;1.23;;;;;;;;;;5043149;28;88947;-66
2022/10/09 14:01:26;;;;;;;1.97;1.47;;;;;;;;;;5042821;28;88529;-65
2022/10/09 14:03:54;;;;;;;3.10;1.33;;;;;;;;;;5042547;28;87024;-65
2022/10/09 14:06:23;;;;;;;1.40;1.30;;;;;;;;;;5042993;28;86988;-66
2022/10/09 14:08:51;;;;;;;1.47;1.30;;;;;;;;;;5041989;28;89945;-67
2022/10/09 14:11:19;;;;;;;1.97;1.23;;;;;;;;;;5043411;28;89822;-68
2022/10/09 14:13:48;;;;;;;1.13;1.00;;;;;;;;;;5042971;28;87028;-67
2022/10/09 14:16:16;;;;;;;1.97;1.70;;;;;;;;;;5043455;28;86931;-68
2022/10/09 14:18:45;;;;;;;2.83;1.57;;;;;;;;;;5043093;28;89223;-69
2022/10/09 14:21:14;;;;;;;1.80;1.30;;;;;;;;;;5042573;28;88307;-68
2022/10/09 14:23:43;;;;;;;2.07;1.50;;;;;;;;;;5042537;27;87132;-68
2022/10/09 14:26:11;;;;;;;2.07;1.33;;;;;;;;;;5043410;28;86960;-68
2022/10/09 14:28:39;;;;;;;2.60;1.60;;;;;;;;;;5042279;28;91533;-70
2022/10/09 14:31:07;;;;;;;3.03;1.73;;;;;;;;;;5042696;27;88926;-70
2022/10/09 14:33:36;;;;;;;1.63;1.37;;;;;;;;;;5039841;27;88038;-70
2022/10/09 14:36:06;;;;;;;1.43;1.17;;;;;;;;;;5042937;28;86909;-69
2022/10/09 14:38:37;;;;;;;3.50;1.40;;;;;;;;;;5042804;28;89133;-70
2022/10/09 14:41:05;;;;;;;2.53;1.73;;;;;;;;;;5042505;28;88624;-69
2022/10/09 14:43:33;;;;;;;3.27;1.73;;;;;;;;;;5042996;28;86930;-71
2022/10/09 14:46:02;;;;;;;3.03;2.03;;;;;;;;;;5052748;27;87065;-70
2022/10/09 14:48:31;;;;;;;2.37;1.43;;;;;;;;;;5062576;27;92041;-70